www.cux-wetter.de
Wetterdaten: Freitag, 07.10.2011
Datum Zeit Temp. A. Feuchte A. Luftdruck Regen Wind Richtung Richtung Sonnenschein Solar Taupunkt Windchill Windben
07.10.2011 00:00 10,2 C 78 % 1000,5 hPa 0,0 l/m 34,0 km/h (5 Bft) W-NW 290 0 min 0 W/m 6,5 C 0,2 C 34,0 km/h (5 Bft)
07.10.2011 00:15 10,3 C 78 % 1001,5 hPa 0,0 l/m 34,4 km/h (5 Bft) W 280 0 min 0 W/m 6,6 C 0,2 C 34,4 km/h (5 Bft)
07.10.2011 00:30 10,2 C 77 % 1001,5 hPa 0,0 l/m 29,2 km/h (5 Bft) W-NW 290 0 min 0 W/m 6,4 C 1,1 C 29,2 km/h (5 Bft)
07.10.2011 00:45 10,4 C 77 % 1001,5 hPa 0,0 l/m 33,4 km/h (5 Bft) W-NW 290 0 min 0 W/m 6,5 C 0,6 C 33,4 km/h (5 Bft)
07.10.2011 01:00 10,3 C 76 % 1000,5 hPa 0,0 l/m 34,4 km/h (5 Bft) W 280 0 min 0 W/m 6,3 C 0,2 C 34,4 km/h (5 Bft)
07.10.2011 01:14 10,0 C 78 % 1000,5 hPa 0,0 l/m 34,4 km/h (5 Bft) W-NW 290 0 min 0 W/m 6,3 C -0,2 C 34,4 km/h (5 Bft)
07.10.2011 01:30 9,7 C 79 % 1001,5 hPa 0,0 l/m 33,1 km/h (5 Bft) W 280 0 min 0 W/m 6,2 C -0,4 C 33,1 km/h (5 Bft)
07.10.2011 01:45 9,6 C 80 % 1001,5 hPa 0,0 l/m 27,8 km/h (5 Bft) W-NW 285 0 min 0 W/m 6,3 C 0,6 C 27,8 km/h (5 Bft)
07.10.2011 02:00 9,5 C 81 % 1001,5 hPa 0,0 l/m 27,8 km/h (5 Bft) W 280 0 min 0 W/m 6,4 C 0,5 C 27,8 km/h (5 Bft)
07.10.2011 02:15 9,6 C 81 % 1001,5 hPa 0,0 l/m 27,1 km/h (5 Bft) W-NW 285 0 min 0 W/m 6,5 C 0,8 C 27,1 km/h (5 Bft)
07.10.2011 02:30 9,8 C 81 % 1001,5 hPa 0,0 l/m 19,6 km/h (3 Bft) W 275 0 min 0 W/m 6,7 C 3,2 C 19,6 km/h (3 Bft)
07.10.2011 02:45 9,9 C 81 % 1001,5 hPa 0,0 l/m 20,5 km/h (4 Bft) W-NW 290 0 min 0 W/m 6,8 C 3,0 C 20,5 km/h (4 Bft)
07.10.2011 03:00 9,9 C 80 % 1000,5 hPa 0,0 l/m 27,4 km/h (5 Bft) W 275 0 min 0 W/m 6,6 C 1,1 C 27,4 km/h (5 Bft)
07.10.2011 03:15 9,8 C 82 % 1001,5 hPa 0,3 l/m 26,5 km/h (4 Bft) W-NW 285 0 min 0 W/m 6,9 C 1,2 C 26,5 km/h (4 Bft)
07.10.2011 03:30 9,7 C 82 % 1001,5 hPa 0,0 l/m 23,6 km/h (4 Bft) W 275 0 min 0 W/m 6,8 C 1,8 C 23,6 km/h (4 Bft)
07.10.2011 03:45 9,7 C 82 % 1000,5 hPa 0,0 l/m 12,8 km/h (3 Bft) W 265 0 min 0 W/m 6,8 C 5,8 C 12,8 km/h (3 Bft)
07.10.2011 04:00 9,4 C 83 % 1000,5 hPa 0,3 l/m 26,6 km/h (4 Bft) W-NW 285 0 min 0 W/m 6,7 C 0,6 C 26,6 km/h (4 Bft)
07.10.2011 04:15 9,3 C 85 % 1000,5 hPa 0,0 l/m 31,8 km/h (5 Bft) W 270 0 min 0 W/m 6,9 C -0,7 C 31,8 km/h (5 Bft)
07.10.2011 04:30 9,3 C 86 % 1000,5 hPa 0,0 l/m 33,9 km/h (5 Bft) W-NW 290 0 min 0 W/m 7,1 C -1,1 C 33,9 km/h (5 Bft)
07.10.2011 04:45 9,4 C 86 % 1000,5 hPa 0,0 l/m 30,1 km/h (5 Bft) W 280 0 min 0 W/m 7,2 C -0,2 C 30,1 km/h (5 Bft)
07.10.2011 05:00 9,4 C 86 % 1000,5 hPa 0,0 l/m 27,6 km/h (5 Bft) W 265 0 min 0 W/m 7,2 C 0,4 C 27,6 km/h (5 Bft)
07.10.2011 05:15 9,5 C 86 % 1000,5 hPa 0,0 l/m 33,1 km/h (5 Bft) W 275 0 min 0 W/m 7,3 C -0,7 C 33,1 km/h (5 Bft)
07.10.2011 05:29 9,6 C 85 % 1000,5 hPa 0,0 l/m 31,8 km/h (5 Bft) W-NW 285 0 min 0 W/m 7,2 C -0,3 C 31,8 km/h (5 Bft)
07.10.2011 05:45 9,6 C 85 % 1000,5 hPa 0,0 l/m 32,9 km/h (5 Bft) W-NW 285 0 min 0 W/m 7,2 C -0,5 C 32,9 km/h (5 Bft)
07.10.2011 06:00 9,5 C 85 % 1000,5 hPa 0,0 l/m 27,5 km/h (5 Bft) W-NW 285 0 min 0 W/m 7,1 C 0,5 C 27,5 km/h (5 Bft)
07.10.2011 06:15 9,5 C 85 % 1000,5 hPa 0,0 l/m 25,1 km/h (4 Bft) W 275 0 min 0 W/m 7,1 C 1,1 C 25,1 km/h (4 Bft)
07.10.2011 06:30 9,5 C 86 % 1000,5 hPa 0,0 l/m 25,0 km/h (4 Bft) W 280 0 min 0 W/m 7,3 C 1,2 C 25,0 km/h (4 Bft)
07.10.2011 06:45 9,6 C 86 % 1000,5 hPa 0,0 l/m 24,0 km/h (4 Bft) W 280 0 min 0 W/m 7,4 C 1,6 C 24,0 km/h (4 Bft)
07.10.2011 07:00 9,6 C 87 % 1000,5 hPa 0,6 l/m 24,6 km/h (4 Bft) W 280 0 min 0 W/m 7,5 C 1,4 C 24,6 km/h (4 Bft)
07.10.2011 07:15 9,5 C 88 % 1000,5 hPa 0,6 l/m 29,1 km/h (5 Bft) W 275 0 min 0 W/m 7,6 C 0,2 C 29,1 km/h (5 Bft)
07.10.2011 07:30 9,5 C 89 % 1000,5 hPa 0,0 l/m 25,6 km/h (4 Bft) W 275 0 min 0 W/m 7,8 C 1,0 C 25,6 km/h (4 Bft)
07.10.2011 07:45 9,5 C 89 % 1001,5 hPa 0,0 l/m 25,6 km/h (4 Bft) W 280 0 min 0 W/m 7,8 C 1,0 C 25,6 km/h (4 Bft)
07.10.2011 08:00 9,5 C 89 % 1001,5 hPa 0,3 l/m 31,7 km/h (5 Bft) W 280 0 min 0 W/m 7,8 C -0,4 C 31,7 km/h (5 Bft)
07.10.2011 08:15 9,6 C 88 % 1001,5 hPa 0,0 l/m 38,9 km/h (6 Bft) W 280 0 min 0 W/m 7,7 C -1,5 C 38,9 km/h (6 Bft)
07.10.2011 08:30 9,6 C 88 % 1001,5 hPa 0,0 l/m 34,8 km/h (5 Bft) W 275 0 min 0 W/m 7,7 C -0,9 C 34,8 km/h (5 Bft)
07.10.2011 08:45 9,8 C 88 % 1001,5 hPa 0,0 l/m 33,3 km/h (5 Bft) W 275 0 min 0 W/m 7,9 C -0,3 C 33,3 km/h (5 Bft)
07.10.2011 09:00 10,3 C 88 % 1001,5 hPa 0,0 l/m 38,4 km/h (6 Bft) W 275 0 min 0 W/m 8,4 C -0,4 C 38,4 km/h (6 Bft)
07.10.2011 09:15 10,3 C 87 % 1001,5 hPa 0,0 l/m 32,0 km/h (5 Bft) W-NW 285 0 min 0 W/m 8,2 C 0,7 C 32,0 km/h (5 Bft)
07.10.2011 09:30 10,3 C 88 % 1002,5 hPa 0,0 l/m 32,5 km/h (5 Bft) W-NW 285 0 min 0 W/m 8,4 C 0,6 C 32,5 km/h (5 Bft)
07.10.2011 09:45 10,3 C 88 % 1002,5 hPa 0,3 l/m 25,2 km/h (4 Bft) W-NW 295 0 min 0 W/m 8,4 C 2,2 C 25,2 km/h (4 Bft)
07.10.2011 10:00 10,4 C 88 % 1002,5 hPa 0,0 l/m 24,0 km/h (4 Bft) W 275 0 min 0 W/m 8,5 C 2,6 C 24,0 km/h (4 Bft)
07.10.2011 10:15 10,6 C 89 % 1002,5 hPa 0,0 l/m 26,3 km/h (4 Bft) W-NW 290 0 min 0 W/m 8,9 C 2,3 C 26,3 km/h (4 Bft)
07.10.2011 10:29 11,3 C 89 % 1002,5 hPa 0,0 l/m 26,9 km/h (4 Bft) NW 305 0 min 0 W/m 9,6 C 3,1 C 26,9 km/h (4 Bft)
07.10.2011 10:44 11,6 C 88 % 1002,5 hPa 0,0 l/m 29,8 km/h (5 Bft) NW 305 0 min 0 W/m 9,7 C 2,9 C 29,8 km/h (5 Bft)
07.10.2011 11:00 11,7 C 87 % 1002,5 hPa 0,0 l/m 27,3 km/h (5 Bft) NW 305 0 min 0 W/m 9,6 C 3,6 C 27,3 km/h (5 Bft)
07.10.2011 11:15 12,4 C 86 % 1002,5 hPa 0,0 l/m 26,5 km/h (4 Bft) W-NW 285 0 min 0 W/m 10,1 C 4,7 C 26,5 km/h (4 Bft)
07.10.2011 11:30 12,4 C 85 % 1002,5 hPa 0,6 l/m 24,7 km/h (4 Bft) N-NW 330 0 min 0 W/m 9,9 C 5,2 C 24,7 km/h (4 Bft)
07.10.2011 11:45 12,4 C 84 % 1002,5 hPa 0,0 l/m 13,3 km/h (3 Bft) NW 320 0 min 0 W/m 9,8 C 8,7 C 13,3 km/h (3 Bft)
07.10.2011 12:00 13,4 C 81 % 1002,5 hPa 0,0 l/m 17,1 km/h (3 Bft) N-NW 335 0 min 0 W/m 10,2 C 8,5 C 17,1 km/h (3 Bft)
07.10.2011 12:15 13,2 C 76 % 1003,5 hPa 0,0 l/m 26,2 km/h (4 Bft) N-NW 335 0 min 0 W/m 9,1 C 5,9 C 26,2 km/h (4 Bft)
07.10.2011 12:30 14,0 C 71 % 1003,5 hPa 0,0 l/m 23,0 km/h (4 Bft) N 350 0 min 0 W/m 8,8 C 7,7 C 23,0 km/h (4 Bft)
07.10.2011 12:45 14,6 C 66 % 1003,5 hPa 0,0 l/m 22,2 km/h (4 Bft) N-NW 335 0 min 0 W/m 8,3 C 8,7 C 22,2 km/h (4 Bft)
07.10.2011 13:00 15,0 C 67 % 1003,5 hPa 0,0 l/m 28,8 km/h (5 Bft) N-NW 340 0 min 0 W/m 8,9 C 7,9 C 28,8 km/h (5 Bft)
07.10.2011 13:15 14,3 C 66 % 1003,5 hPa 0,0 l/m 35,3 km/h (5 Bft) N-NW 335 0 min 0 W/m 8,0 C 5,9 C 35,3 km/h (5 Bft)
07.10.2011 13:30 13,5 C 74 % 1003,5 hPa 0,0 l/m 30,2 km/h (5 Bft) NW 315 0 min 0 W/m 9,0 C 5,5 C 30,2 km/h (5 Bft)
07.10.2011 13:45 14,0 C 75 % 1003,5 hPa 0,0 l/m 25,3 km/h (4 Bft) NW 315 0 min 0 W/m 9,6 C 7,2 C 25,3 km/h (4 Bft)
07.10.2011 14:00 14,0 C 75 % 1003,5 hPa 0,0 l/m 26,4 km/h (4 Bft) NW 325 0 min 0 W/m 9,6 C 7,0 C 26,4 km/h (4 Bft)
07.10.2011 14:14 15,0 C 71 % 1003,5 hPa 0,0 l/m 32,7 km/h (5 Bft) NW 325 0 min 0 W/m 9,8 C 7,3 C 32,7 km/h (5 Bft)
07.10.2011 14:29 15,2 C 72 % 1003,5 hPa 0,0 l/m 27,5 km/h (5 Bft) NW 320 0 min 0 W/m 10,2 C 8,4 C 27,5 km/h (5 Bft)
07.10.2011 14:45 14,3 C 75 % 1003,5 hPa 0,0 l/m 28,1 km/h (5 Bft) NW 315 0 min 0 W/m 9,9 C 7,0 C 28,1 km/h (5 Bft)
07.10.2011 15:00 13,7 C 77 % 1003,5 hPa 0,3 l/m 25,3 km/h (4 Bft) NW 320 0 min 0 W/m 9,7 C 6,8 C 25,3 km/h (4 Bft)
07.10.2011 15:15 13,6 C 79 % 1003,5 hPa 0,3 l/m 30,4 km/h (5 Bft) N 5 0 min 0 W/m 10,0 C 5,6 C 30,4 km/h (5 Bft)
07.10.2011 15:30 13,6 C 78 % 1003,5 hPa 0,0 l/m 17,1 km/h (3 Bft) N-NO 15 0 min 0 W/m 9,8 C 8,8 C 17,1 km/h (3 Bft)
07.10.2011 15:45 13,9 C 74 % 1003,5 hPa 0,0 l/m 32,6 km/h (5 Bft) N 5 0 min 0 W/m 9,3 C 5,7 C 32,6 km/h (5 Bft)
07.10.2011 15:59 14,1 C 74 % 1003,5 hPa 0,0 l/m 30,7 km/h (5 Bft) N-NO 25 0 min 0 W/m 9,5 C 6,3 C 30,7 km/h (5 Bft)
07.10.2011 16:15 13,8 C 72 % 1004,5 hPa 0,0 l/m 37,7 km/h (5 Bft) N-NO 30 0 min 0 W/m 8,8 C 4,8 C 37,7 km/h (5 Bft)
07.10.2011 16:30 13,2 C 74 % 1004,5 hPa 0,0 l/m 36,4 km/h (5 Bft) N-NO 20 0 min 0 W/m 8,7 C 4,1 C 36,4 km/h (5 Bft)
07.10.2011 16:45 13,1 C 74 % 1004,5 hPa 0,0 l/m 46,7 km/h (6 Bft) N-NO 25 0 min 0 W/m 8,6 C 2,7 C 46,7 km/h (6 Bft)
07.10.2011 17:00 12,2 C 79 % 1004,5 hPa 0,0 l/m 29,7 km/h (5 Bft) NO 35 0 min 0 W/m 8,7 C 3,8 C 29,7 km/h (5 Bft)
07.10.2011 17:15 12,3 C 78 % 1004,5 hPa 0,0 l/m 26,2 km/h (4 Bft) N 5 0 min 0 W/m 8,6 C 4,7 C 26,2 km/h (4 Bft)
07.10.2011 17:30 11,9 C 80 % 1004,5 hPa 0,3 l/m 25,8 km/h (4 Bft) O-NO 60 0 min 0 W/m 8,6 C 4,2 C 25,8 km/h (4 Bft)
07.10.2011 17:45 11,7 C 81 % 1004,5 hPa 0,0 l/m 17,5 km/h (3 Bft) NO 55 0 min 0 W/m 8,5 C 6,3 C 17,5 km/h (3 Bft)
07.10.2011 18:00 11,4 C 83 % 1004,5 hPa 1,8 l/m 34,6 km/h (5 Bft) N-NO 30 0 min 0 W/m 8,6 C 1,8 C 34,6 km/h (5 Bft)
07.10.2011 18:15 11,5 C 84 % 1004,5 hPa 0,0 l/m 38,4 km/h (6 Bft) NO 40 0 min 0 W/m 8,9 C 1,3 C 38,4 km/h (6 Bft)
07.10.2011 18:30 11,5 C 82 % 1005,5 hPa 0,0 l/m 40,3 km/h (6 Bft) N 10 0 min 0 W/m 8,5 C 1,1 C 40,3 km/h (6 Bft)
07.10.2011 18:45 11,4 C 79 % 1005,5 hPa 0,0 l/m 36,3 km/h (5 Bft) N-NO 25 0 min 0 W/m 7,9 C 1,5 C 36,3 km/h (5 Bft)
07.10.2011 19:00 11,6 C 77 % 1005,5 hPa 0,0 l/m 34,7 km/h (5 Bft) N-NO 25 0 min 0 W/m 7,7 C 2,1 C 34,7 km/h (5 Bft)
07.10.2011 19:15 11,5 C 77 % 1005,5 hPa 0,0 l/m 31,9 km/h (5 Bft) N-NO 15 0 min 0 W/m 7,6 C 2,4 C 31,9 km/h (5 Bft)
07.10.2011 19:29 12,1 C 75 % 1005,5 hPa 0,0 l/m 31,9 km/h (5 Bft) N-NO 15 0 min 0 W/m 7,8 C 3,3 C 31,9 km/h (5 Bft)
07.10.2011 19:45 12,3 C 72 % 1005,5 hPa 0,0 l/m 34,2 km/h (5 Bft) N-NO 15 0 min 0 W/m 7,4 C 3,2 C 34,2 km/h (5 Bft)
07.10.2011 20:00 12,3 C 73 % 1005,5 hPa 0,0 l/m 36,4 km/h (5 Bft) N 360 0 min 0 W/m 7,6 C 2,8 C 36,4 km/h (5 Bft)
07.10.2011 20:15 12,0 C 71 % 1005,5 hPa 0,0 l/m 36,3 km/h (5 Bft) N-NO 15 0 min 0 W/m 6,9 C 2,4 C 36,3 km/h (5 Bft)
07.10.2011 20:30 12,0 C 72 % 1006,5 hPa 0,0 l/m 43,2 km/h (6 Bft) N 350 0 min 0 W/m 7,1 C 1,5 C 43,2 km/h (6 Bft)
07.10.2011 20:45 11,4 C 73 % 1006,5 hPa 0,3 l/m 43,2 km/h (6 Bft) N 350 0 min 0 W/m 6,7 C 0,6 C 43,2 km/h (6 Bft)
07.10.2011 21:00 11,9 C 71 % 1006,5 hPa 0,0 l/m 43,2 km/h (6 Bft) N 350 0 min 0 W/m 6,8 C 1,3 C 43,2 km/h (6 Bft)
07.10.2011 21:15 11,8 C 72 % 1006,5 hPa 0,0 l/m 43,2 km/h (6 Bft) N 350 0 min 0 W/m 6,9 C 1,2 C 43,2 km/h (6 Bft)
07.10.2011 21:30 11,9 C 72 % 1006,5 hPa 0,0 l/m 30,7 km/h (5 Bft) N 355 0 min 0 W/m 7,0 C 3,2 C 30,7 km/h (5 Bft)
07.10.2011 21:45 11,8 C 75 % 1006,5 hPa 0,0 l/m 30,7 km/h (5 Bft) N 355 0 min 0 W/m 7,5 C 3,1 C 30,7 km/h (5 Bft)
07.10.2011 22:00 11,8 C 71 % 1006,5 hPa 0,0 l/m 32,6 km/h (5 Bft) N 10 0 min 0 W/m 6,7 C 2,7 C 32,6 km/h (5 Bft)
07.10.2011 22:15 11,3 C 70 % 1006,5 hPa 0,0 l/m 32,6 km/h (5 Bft) N 10 0 min 0 W/m 6,0 C 2,0 C 32,6 km/h (5 Bft)
07.10.2011 22:30 11,1 C 71 % 1006,5 hPa 0,0 l/m 32,6 km/h (5 Bft) N 10 0 min 0 W/m 6,0 C 1,7 C 32,6 km/h (5 Bft)
07.10.2011 22:45 11,6 C 69 % 1006,5 hPa 0,0 l/m 32,6 km/h (5 Bft) N 10 0 min 0 W/m 6,1 C 2,4 C 32,6 km/h (5 Bft)
07.10.2011 23:00 11,8 C 73 % 1006,5 hPa 0,0 l/m 32,6 km/h (5 Bft) N 10 0 min 0 W/m 7,1 C 2,7 C 32,6 km/h (5 Bft)
07.10.2011 23:14 11,3 C 72 % 1006,5 hPa 0,3 l/m 32,6 km/h (5 Bft) N 10 0 min 0 W/m 6,4 C 2,0 C 32,6 km/h (5 Bft)
07.10.2011 23:30 11,1 C 72 % 1006,5 hPa 0,0 l/m 32,6 km/h (5 Bft) N 10 0 min 0 W/m 6,2 C 1,7 C 32,6 km/h (5 Bft)
07.10.2011 23:45 10,7 C 77 % 1006,5 hPa 0,0 l/m 32,6 km/h (5 Bft) N 10 0 min 0 W/m 6,8 C 1,1 C 32,6 km/h (5 Bft)
_ Min-Zeit 04:15 12:45 00:00 - 03:45 - - - - 22:15 08:15 03:45
Minimum _ 9,3 C 66 % 1000,5 hPa - 12,8 km/h (3 Bft) - - - - 6,0 C -1,5 C 12,8 km/h (3 Bft)
_ Max-Zeit 14:29 07:30 20:30 18:00 16:45 - - 00:00 00:00 12:00 15:30 16:45
Maximum _ 15,2 C 89 % 1006,5 hPa 1,8 l/m 46,7 km/h
N-NO (6 Bft)
- - 0 min 0 W/m 10,2 C 8,8 C 46,7 km/h
N-NO (6 Bft)
Durchschnitt _ 11,4 C 79 % 1003,1 hPa #6,3 l/m 30,1 km/h (5 Bft) W - #0 min. 0 W/m 7,9 C 2,7 C 30,1 km/h (5 Bft)
copyright by Holger Just